Thunder radar more information blitzortung!


Radar de pluja more information rain snow radar


Visita la nostra xarxa de llocs de meteo:

Template documentation
and downloads

And another site



No particular awareness of the weather is required.    There are no Weather-warnings

Pagina Historial Weather Underground text

Diari Resum Octubre 3, 2017 Unitats:  Mètric    Imperial   Tant
« Previous Dia
SegĂźent Dia »
Diari Setmana Mensual Anual Personalitzada
  Maxima: Minima: Media:
Temperatura: 26.7 °C 16.5 °C 21.5 °C
Punt de rosada: 18.1 °C 14.3 °C 16.1 °C
Humitat: 87 % 54 % 72 %
Wind Speed: 20.4 km/h 0.0 km/h 4.6 km/h
RĂ fegues de vent: 20.4 km/h - -
Vent:- - South
Pression baro: 1023.9 hPa 1019.9 hPa -
Precipitacions: 0.0 mm    
Historical Graphs
 
 
Dades de taula per Octubre 3, 2017
Temps Temperatura Punt de rosada Pression baro Vent Wind Speed RĂ fegues de vent Humitat Rainfall Rate (Hourly)
00:00 17.1 °C 14.4 °C 1021.9 hPa Calm   3.2 km/h 84 % 0.0 mm
00:02 19.2 °C 15.3 °C 1023.9 hPa WSW 3.7 km/h   78 % 0.0 mm
00:07 19.1 °C 15.2 °C 1023.9 hPa WSW 1.4 km/h   78 % 0.0 mm
00:10 17.0 °C 14.4 °C 1021.9 hPa Calm     85 % 0.0 mm
00:12 19.0 °C 15.1 °C 1023.9 hPa Calm     78 % 0.0 mm
00:20 16.9 °C 14.3 °C 1021.9 hPa Calm     85 % 0.0 mm
00:30 16.8 °C 14.3 °C 1021.9 hPa Calm     85 % 0.0 mm
00:40 16.8 °C 14.4 °C 1021.9 hPa Calm     86 % 0.0 mm
00:50 16.8 °C 14.4 °C 1021.9 hPa Calm     86 % 0.0 mm
01:00 16.7 °C 14.3 °C 1021.9 hPa Calm     86 % 0.0 mm
01:10 16.7 °C 14.5 °C 1021.9 hPa Calm     87 % 0.0 mm
01:20 16.6 °C 14.4 °C 1021.9 hPa Calm   3.2 km/h 87 % 0.0 mm
01:30 16.5 °C 14.3 °C 1021.9 hPa West 1.6 km/h 3.2 km/h 87 % 0.0 mm
01:40 16.5 °C 14.3 °C 1021.9 hPa Calm   3.2 km/h 87 % 0.0 mm
01:50 16.5 °C 14.3 °C 1021.9 hPa WSW 3.2 km/h 3.2 km/h 87 % 0.0 mm
02:00 16.7 °C 14.5 °C 1020.9 hPa WSW 1.6 km/h 3.2 km/h 87 % 0.0 mm
02:10 16.8 °C 14.6 °C 1021.9 hPa Calm   1.6 km/h 87 % 0.0 mm
02:20 16.7 °C 14.5 °C 1021.9 hPa WSW 1.6 km/h 3.2 km/h 87 % 0.0 mm
02:30 16.7 °C 14.5 °C 1021.9 hPa SW 1.6 km/h 3.2 km/h 87 % 0.0 mm
02:40 16.6 °C 14.4 °C 1021.9 hPa SW 1.6 km/h 3.2 km/h 87 % 0.0 mm
02:50 16.7 °C 14.5 °C 1021.9 hPa WSW 1.6 km/h 3.2 km/h 87 % 0.0 mm
03:00 16.9 °C 14.7 °C 1021.9 hPa Calm   3.2 km/h 87 % 0.0 mm
03:10 17.0 °C 14.8 °C 1021.9 hPa Calm   1.6 km/h 87 % 0.0 mm
03:20 17.0 °C 14.7 °C 1021.9 hPa Calm   3.2 km/h 86 % 0.0 mm
03:30 17.1 °C 14.7 °C 1021.9 hPa WSW 1.6 km/h 3.2 km/h 86 % 0.0 mm
03:40 17.2 °C 14.8 °C 1021.9 hPa Calm   3.2 km/h 86 % 0.0 mm
03:50 17.3 °C 14.9 °C 1021.9 hPa SW 3.2 km/h 3.2 km/h 86 % 0.0 mm
04:00 17.3 °C 14.9 °C 1021.9 hPa SW 3.2 km/h 3.2 km/h 86 % 0.0 mm
04:10 17.5 °C 15.1 °C 1021.9 hPa SW 1.6 km/h 3.2 km/h 86 % 0.0 mm
04:20 17.7 °C 15.3 °C 1021.9 hPa SW 1.6 km/h 3.2 km/h 86 % 0.0 mm
04:30 17.9 °C 15.5 °C 1020.9 hPa WSW 1.6 km/h 4.8 km/h 86 % 0.0 mm
04:40 18.1 °C 15.6 °C 1021.9 hPa WSW 1.6 km/h 3.2 km/h 85 % 0.0 mm
04:50 18.3 °C 15.7 °C 1021.9 hPa SW 1.6 km/h 3.2 km/h 85 % 0.0 mm
05:00 18.5 °C 15.9 °C 1020.9 hPa SW 3.2 km/h 4.8 km/h 85 % 0.0 mm
05:10 18.8 °C 16.1 °C 1021.9 hPa Calm   3.2 km/h 84 % 0.0 mm
05:20 19.0 °C 16.1 °C 1021.9 hPa SW 3.2 km/h 3.2 km/h 83 % 0.0 mm
05:30 19.3 °C 16.3 °C 1021.9 hPa SW 1.6 km/h 4.8 km/h 83 % 0.0 mm
05:40 19.6 °C 16.4 °C 1021.9 hPa Calm   3.2 km/h 82 % 0.0 mm
05:50 20.0 °C 16.4 °C 1021.9 hPa SSW 3.2 km/h 3.2 km/h 80 % 0.0 mm
06:00 20.4 °C 16.8 °C 1021.9 hPa South 1.6 km/h 3.2 km/h 80 % 0.0 mm
06:10 20.8 °C 17.0 °C 1021.9 hPa Calm   3.2 km/h 79 % 0.0 mm
06:20 20.6 °C 16.6 °C 1021.9 hPa ESE 1.6 km/h 4.8 km/h 78 % 0.0 mm
11:28 20.8 °C 16.6 °C 1021.9 hPa East 3.7 km/h 3.7 km/h 77 % 0.0 mm
11:29 20.8 °C 16.6 °C 1021.9 hPa East 3.7 km/h 3.7 km/h 77 % 0.0 mm
11:34 20.9 °C 16.7 °C 1021.9 hPa NNE 2.6 km/h 2.6 km/h 77 % 0.0 mm
11:39 21.3 °C 16.9 °C 1021.9 hPa North 2.6 km/h 2.6 km/h 76 % 0.0 mm
11:44 21.9 °C 17.5 °C 1021.9 hPa NE 5.6 km/h 5.6 km/h 76 % 0.0 mm
11:49 21.9 °C 17.3 °C 1021.9 hPa East 3.9 km/h 3.9 km/h 75 % 0.0 mm
11:54 22.1 °C 17.2 °C 1021.9 hPa ENE 5.6 km/h 5.6 km/h 74 % 0.0 mm
11:59 22.3 °C 17.2 °C 1021.9 hPa ENE 5.6 km/h 5.6 km/h 73 % 0.0 mm
12:04 22.4 °C 17.3 °C 1021.9 hPa ENE 3.9 km/h 3.9 km/h 73 % 0.0 mm
12:09 22.2 °C 17.1 °C 1021.9 hPa ENE 5.6 km/h 5.6 km/h 73 % 0.0 mm
12:14 22.2 °C 16.9 °C 1021.9 hPa NE 6.1 km/h 6.1 km/h 72 % 0.0 mm
12:19 22.5 °C 17.2 °C 1021.9 hPa WNW 3.7 km/h 3.7 km/h 72 % 0.0 mm
12:24 22.5 °C 17.0 °C 1021.9 hPa NNE 9.3 km/h 9.3 km/h 71 % 0.0 mm
12:29 23.1 °C 17.8 °C 1021.9 hPa North 3.7 km/h 3.7 km/h 72 % 0.0 mm
12:34 23.5 °C 17.7 °C 1021.9 hPa NNE 5.6 km/h 5.6 km/h 70 % 0.0 mm
12:39 23.9 °C 18.1 °C 1021.9 hPa NNE 5.8 km/h 5.8 km/h 70 % 0.0 mm
12:44 23.8 °C 17.8 °C 1021.9 hPa WNW 3.7 km/h 3.7 km/h 69 % 0.0 mm
12:49 24.3 °C 18.0 °C 1021.9 hPa West 3.9 km/h 3.9 km/h 68 % 0.0 mm
12:54 24.4 °C 17.6 °C 1021.9 hPa NE 3.7 km/h 3.7 km/h 66 % 0.0 mm
12:59 24.4 °C 17.6 °C 1021.9 hPa NE 5.6 km/h 5.6 km/h 66 % 0.0 mm
13:04 24.3 °C 17.3 °C 1021.9 hPa NE 7.4 km/h 7.4 km/h 65 % 0.0 mm
13:14 24.1 °C 16.6 °C 1021.9 hPa NNE 9.3 km/h 9.3 km/h 63 % 0.0 mm
13:19 24.6 °C 17.3 °C 1021.9 hPa NE 5.6 km/h 5.6 km/h 64 % 0.0 mm
13:24 24.5 °C 16.7 °C 1021.9 hPa East 7.4 km/h 7.4 km/h 62 % 0.0 mm
13:29 24.5 °C 16.7 °C 1021.9 hPa NE 9.3 km/h 9.3 km/h 62 % 0.0 mm
13:34 24.8 °C 16.8 °C 1021.9 hPa ENE 6.1 km/h 6.1 km/h 61 % 0.0 mm
13:39 24.6 °C 16.8 °C 1021.9 hPa ENE 9.3 km/h 9.3 km/h 62 % 0.0 mm
13:44 24.6 °C 16.8 °C 1021.9 hPa NE 7.4 km/h 7.4 km/h 62 % 0.0 mm
13:49 24.6 °C 16.8 °C 1021.9 hPa ENE 9.3 km/h 9.3 km/h 62 % 0.0 mm
13:54 24.7 °C 16.7 °C 1021.9 hPa NNE 9.3 km/h 9.3 km/h 61 % 0.0 mm
13:59 24.7 °C 16.7 °C 1021.9 hPa NNE 7.4 km/h 7.4 km/h 61 % 0.0 mm
14:01 24.8 °C 16.8 °C 1021.9 hPa NE 9.7 km/h 9.7 km/h 61 % 0.0 mm
14:06 24.8 °C 16.8 °C 1021.9 hPa NNW 5.3 km/h 5.3 km/h 61 % 0.0 mm
14:11 25.1 °C 16.8 °C 1021.9 hPa NE 3.9 km/h 3.9 km/h 60 % 0.0 mm
14:16 25.3 °C 17.0 °C 1020.9 hPa NNE 7.6 km/h 7.6 km/h 60 % 0.0 mm
14:21 24.9 °C 16.6 °C 1020.9 hPa NE 9.3 km/h 9.3 km/h 60 % 0.0 mm
14:26 24.8 °C 16.5 °C 1020.9 hPa South 5.6 km/h 5.6 km/h 60 % 0.0 mm
14:31 25.5 °C 16.9 °C 1020.9 hPa NNE 9.5 km/h 9.5 km/h 59 % 0.0 mm
14:36 25.7 °C 16.8 °C 1020.9 hPa ESE 7.4 km/h 7.4 km/h 58 % 0.0 mm
14:41 25.4 °C 16.6 °C 1020.9 hPa NNE 9.3 km/h 9.3 km/h 58 % 0.0 mm
14:46 25.1 °C 16.3 °C 1020.9 hPa NNE 7.9 km/h 7.9 km/h 58 % 0.0 mm
14:51 24.9 °C 16.3 °C 1020.9 hPa NE 9.3 km/h 9.3 km/h 59 % 0.0 mm
14:56 25.0 °C 15.9 °C 1020.9 hPa ESE 7.4 km/h 7.4 km/h 57 % 0.0 mm
15:01 25.1 °C 16.0 °C 1020.9 hPa NNE 5.6 km/h 5.6 km/h 57 % 0.0 mm
15:06 25.1 °C 15.4 °C 1020.9 hPa WSW 9.3 km/h 9.3 km/h 55 % 0.0 mm
15:08 25.6 °C 16.4 °C 1020.9 hPa NE 5.6 km/h 5.6 km/h 57 % 0.0 mm
15:13 25.7 °C 16.3 °C 1020.9 hPa ENE 7.4 km/h 7.4 km/h 56 % 0.0 mm
15:18 26.0 °C 16.3 °C 1019.9 hPa ENE 7.4 km/h 7.4 km/h 55 % 0.0 mm
15:23 26.0 °C 16.6 °C 1019.9 hPa ESE 10.0 km/h 10.0 km/h 56 % 0.0 mm
15:28 26.5 °C 16.7 °C 1019.9 hPa East 8.7 km/h 8.7 km/h 55 % 0.0 mm
15:33 26.7 °C 16.6 °C 1020.9 hPa SSW 5.6 km/h 5.6 km/h 54 % 0.0 mm
15:38 26.4 °C 16.3 °C 1020.9 hPa ESE 9.3 km/h 9.3 km/h 54 % 0.0 mm
15:43 26.4 °C 16.3 °C 1020.9 hPa SE 16.7 km/h 16.7 km/h 54 % 0.0 mm
15:48 26.2 °C 16.2 °C 1019.9 hPa ENE 9.3 km/h 9.3 km/h 54 % 0.0 mm
15:53 25.6 °C 15.9 °C 1019.9 hPa ESE 14.8 km/h 14.8 km/h 55 % 0.0 mm
15:58 25.2 °C 15.8 °C 1019.9 hPa SSE 17.2 km/h 17.2 km/h 56 % 0.0 mm
16:03 25.1 °C 16.0 °C 1020.9 hPa East 11.4 km/h 11.4 km/h 57 % 0.0 mm
16:08 24.8 °C 16.2 °C 1020.9 hPa ESE 13.7 km/h 13.7 km/h 59 % 0.0 mm
16:13 24.6 °C 16.1 °C 1020.9 hPa East 13.0 km/h 13.0 km/h 59 % 0.0 mm
16:18 24.6 °C 16.3 °C 1020.9 hPa East 12.2 km/h 12.2 km/h 60 % 0.0 mm
16:23 24.4 °C 16.1 °C 1020.9 hPa East 20.4 km/h 20.4 km/h 60 % 0.0 mm
16:28 24.4 °C 16.4 °C 1020.9 hPa ESE 13.0 km/h 13.0 km/h 61 % 0.0 mm
16:33 24.3 °C 16.3 °C 1019.9 hPa East 11.1 km/h 11.1 km/h 61 % 0.0 mm
16:38 24.3 °C 16.3 °C 1019.9 hPa ESE 9.3 km/h 9.3 km/h 61 % 0.0 mm
16:43 24.4 °C 16.4 °C 1019.9 hPa ESE 6.1 km/h 6.1 km/h 61 % 0.0 mm
16:48 24.4 °C 16.4 °C 1019.9 hPa East 9.3 km/h 9.3 km/h 61 % 0.0 mm
16:53 24.6 °C 16.6 °C 1019.9 hPa East 9.3 km/h 9.3 km/h 61 % 0.0 mm
16:58 24.4 °C 16.4 °C 1019.9 hPa SE 14.8 km/h 14.8 km/h 61 % 0.0 mm
17:03 24.4 °C 16.4 °C 1019.9 hPa NNE 9.0 km/h 9.0 km/h 61 % 0.0 mm
17:08 24.4 °C 16.4 °C 1019.9 hPa ESE 9.3 km/h 9.3 km/h 61 % 0.0 mm
17:13 24.2 °C 16.2 °C 1019.9 hPa South 9.3 km/h 9.3 km/h 61 % 0.0 mm
17:18 24.2 °C 16.2 °C 1019.9 hPa SSE 5.6 km/h 5.8 km/h 61 % 0.0 mm
17:23 24.1 °C 16.1 °C 1019.9 hPa East 7.4 km/h 7.4 km/h 61 % 0.0 mm
17:28 24.0 °C 16.0 °C 1019.9 hPa SSW 3.9 km/h 3.9 km/h 61 % 0.0 mm
17:33 23.9 °C 15.9 °C 1020.9 hPa SE 7.4 km/h 7.4 km/h 61 % 0.0 mm
17:38 23.9 °C 16.2 °C 1020.9 hPa South 2.6 km/h 2.6 km/h 62 % 0.0 mm
17:43 23.9 °C 16.2 °C 1020.9 hPa SSE 9.3 km/h 9.3 km/h 62 % 0.0 mm
17:48 23.9 °C 16.2 °C 1020.9 hPa South 5.6 km/h 5.6 km/h 62 % 0.0 mm
17:53 24.0 °C 16.0 °C 1020.9 hPa ESE 9.3 km/h 9.3 km/h 61 % 0.0 mm
17:54 24.0 °C 16.0 °C 1020.9 hPa SSE 9.3 km/h 9.3 km/h 61 % 0.0 mm
17:59 24.3 °C 16.6 °C 1020.9 hPa ESE 4.2 km/h 4.2 km/h 62 % 0.0 mm
18:04 24.5 °C 16.5 °C 1020.9 hPa SSE 3.7 km/h 3.7 km/h 61 % 0.0 mm
18:19 24.4 °C 16.4 °C 1020.9 hPa East 4.2 km/h 4.2 km/h 61 % 0.0 mm
18:24 24.2 °C 16.2 °C 1020.9 hPa South 5.6 km/h 5.6 km/h 61 % 0.0 mm
18:29 24.1 °C 16.1 °C 1020.9 hPa ESE 7.4 km/h 7.4 km/h 61 % 0.0 mm
18:34 24.4 °C 16.7 °C 1020.9 hPa SW 7.4 km/h 7.4 km/h 62 % 0.0 mm
18:39 24.6 °C 16.8 °C 1020.9 hPa SW 7.4 km/h 7.4 km/h 62 % 0.0 mm
18:49 24.4 °C 16.9 °C 1020.9 hPa SSW 7.4 km/h 7.4 km/h 63 % 0.0 mm
18:54 24.2 °C 16.7 °C 1020.9 hPa WSW 6.4 km/h 6.4 km/h 63 % 0.0 mm
18:59 23.9 °C 16.7 °C 1020.9 hPa West 9.3 km/h 9.3 km/h 64 % 0.0 mm
19:04 23.8 °C 16.6 °C 1020.9 hPa SSW 3.7 km/h 3.7 km/h 64 % 0.0 mm
19:09 23.5 °C 16.3 °C 1020.9 hPa South 11.1 km/h 11.1 km/h 64 % 0.0 mm
19:14 23.3 °C 16.1 °C 1020.9 hPa SW 9.5 km/h 9.5 km/h 64 % 0.0 mm
19:19 23.2 °C 16.0 °C 1021.9 hPa WSW 5.6 km/h 5.6 km/h 64 % 0.0 mm
19:24 23.0 °C 16.1 °C 1021.9 hPa WSW 3.9 km/h 3.9 km/h 65 % 0.0 mm
19:25 18.9 °C 15.9 °C 1022.9 hPa Calm   1.6 km/h 83 % 0.0 mm
19:29 22.8 °C 15.9 °C 1021.9 hPa SW 7.4 km/h 7.4 km/h 65 % 0.0 mm
19:34 22.7 °C 15.8 °C 1021.9 hPa SW 3.9 km/h 4.2 km/h 65 % 0.0 mm
19:35 18.8 °C 16.1 °C 1022.9 hPa Calm     84 % 0.0 mm
19:39 22.5 °C 15.8 °C 1021.9 hPa WSW 5.6 km/h 5.6 km/h 66 % 0.0 mm
19:44 22.4 °C 15.7 °C 1020.9 hPa SW 4.2 km/h 4.2 km/h 66 % 0.0 mm
19:45 18.7 °C 15.9 °C 1023.9 hPa Calm     84 % 0.0 mm
19:49 22.3 °C 15.9 °C 1020.9 hPa WSW 3.7 km/h 3.7 km/h 67 % 0.0 mm
19:54 22.3 °C 15.9 °C 1020.9 hPa SW 3.7 km/h 3.7 km/h 67 % 0.0 mm
19:55 18.7 °C 15.9 °C 1023.9 hPa Calm     84 % 0.0 mm
19:59 22.2 °C 15.8 °C 1021.9 hPa SSW 6.1 km/h 6.1 km/h 67 % 0.0 mm
20:04 22.2 °C 16.0 °C 1021.9 hPa WSW 2.6 km/h   68 % 0.0 mm
20:05 18.6 °C 16.0 °C 1023.9 hPa Calm     85 % 0.0 mm
20:09 22.1 °C 15.9 °C 1021.9 hPa WSW 3.7 km/h 3.7 km/h 68 % 0.0 mm
20:14 21.9 °C 15.9 °C 1021.9 hPa SW 4.7 km/h 4.7 km/h 69 % 0.0 mm
20:15 18.5 °C 15.9 °C 1022.9 hPa Calm     85 % 0.0 mm
20:19 21.8 °C 16.1 °C 1021.9 hPa WSW 5.6 km/h 5.6 km/h 70 % 0.0 mm
20:24 21.7 °C 16.0 °C 1021.9 hPa WSW 2.3 km/h 2.3 km/h 70 % 0.0 mm
20:25 18.4 °C 16.0 °C 1022.9 hPa Calm     86 % 0.0 mm
20:29 21.6 °C 15.9 °C 1021.9 hPa West 3.7 km/h 3.7 km/h 70 % 0.0 mm
20:34 21.5 °C 15.8 °C 1021.9 hPa WSW 3.7 km/h 3.7 km/h 70 % 0.0 mm
20:35 18.1 °C 15.6 °C 1022.9 hPa SW 1.6 km/h 3.2 km/h 85 % 0.0 mm
20:39 21.5 °C 16.0 °C 1021.9 hPa SW 3.7 km/h 3.7 km/h 71 % 0.0 mm
20:44 21.4 °C 15.9 °C 1021.9 hPa WSW 1.9 km/h   71 % 0.0 mm
20:45 18.2 °C 15.6 °C 1021.9 hPa WSW 1.6 km/h 4.8 km/h 85 % 0.0 mm
20:49 21.3 °C 15.8 °C 1021.9 hPa SW 1.4 km/h   71 % 0.0 mm
20:54 21.2 °C 15.7 °C 1021.9 hPa WSW 5.6 km/h 5.6 km/h 71 % 0.0 mm
20:55 18.3 °C 15.9 °C 1021.9 hPa Calm   1.6 km/h 86 % 0.0 mm
20:59 21.2 °C 15.9 °C 1021.9 hPa SW 3.7 km/h 3.7 km/h 72 % 0.0 mm
21:04 21.0 °C 15.8 °C 1021.9 hPa SW 3.7 km/h 3.7 km/h 72 % 0.0 mm
21:05 18.3 °C 15.9 °C 1021.9 hPa Calm     86 % 0.0 mm
21:09 20.9 °C 15.7 °C 1021.9 hPa WSW 3.7 km/h 3.7 km/h 72 % 0.0 mm
21:14 20.9 °C 15.9 °C 1021.9 hPa West 3.7 km/h 3.7 km/h 73 % 0.0 mm
21:15 18.2 °C 15.8 °C 1022.9 hPa Calm     86 % 0.0 mm
21:19 20.8 °C 15.8 °C 1021.9 hPa SW 3.7 km/h 3.7 km/h 73 % 0.0 mm
21:24 20.7 °C 15.9 °C 1021.9 hPa SW 3.7 km/h 3.7 km/h 74 % 0.0 mm
21:25 18.1 °C 15.7 °C 1022.9 hPa West 1.6 km/h 1.6 km/h 86 % 0.0 mm
21:29 20.6 °C 15.8 °C 1021.9 hPa WSW 3.7 km/h 3.7 km/h 74 % 0.0 mm
21:34 20.6 °C 16.0 °C 1021.9 hPa WSW 3.7 km/h   75 % 0.0 mm
21:35 18.1 °C 15.6 °C 1022.9 hPa West 1.6 km/h 3.2 km/h 85 % 0.0 mm
21:39 20.5 °C 15.9 °C 1021.9 hPa SW 3.7 km/h   75 % 0.0 mm
21:44 20.5 °C 15.9 °C 1022.9 hPa West 2.3 km/h 2.6 km/h 75 % 0.0 mm
21:45 18.1 °C 15.6 °C 1022.9 hPa West 1.6 km/h 3.2 km/h 85 % 0.0 mm
21:49 20.5 °C 15.9 °C 1022.9 hPa WSW 3.5 km/h 3.5 km/h 75 % 0.0 mm
21:54 20.4 °C 16.0 °C 1022.9 hPa WSW 5.6 km/h 5.6 km/h 76 % 0.0 mm
21:55 18.1 °C 15.6 °C 1022.9 hPa Calm     85 % 0.0 mm
21:59 20.3 °C 15.9 °C 1022.9 hPa SW 3.7 km/h 3.7 km/h 76 % 0.0 mm
22:04 20.2 °C 15.8 °C 1022.9 hPa SW 3.9 km/h 3.9 km/h 76 % 0.0 mm
22:05 18.1 °C 15.3 °C 1022.9 hPa NW 1.6 km/h 3.2 km/h 84 % 0.0 mm
22:09 20.2 °C 16.1 °C 1022.9 hPa West 3.7 km/h 3.7 km/h 77 % 0.0 mm
22:14 20.2 °C 16.1 °C 1022.9 hPa WSW 3.7 km/h 3.7 km/h 77 % 0.0 mm
22:19 20.1 °C 15.9 °C 1022.9 hPa WSW 3.7 km/h 3.7 km/h 77 % 0.0 mm
22:24 20.0 °C 16.1 °C 1022.9 hPa West 1.9 km/h 1.9 km/h 78 % 0.0 mm
22:29 20.0 °C 16.1 °C 1022.9 hPa WSW 3.7 km/h 3.7 km/h 78 % 0.0 mm
22:34 20.0 °C 16.1 °C 1022.9 hPa WSW 3.7 km/h 3.7 km/h 78 % 0.0 mm
22:35 17.9 °C 15.3 °C 1022.9 hPa Calm     85 % 0.0 mm
22:39 19.9 °C 16.2 °C 1022.9 hPa WSW 3.7 km/h   79 % 0.0 mm
22:45 17.8 °C 15.2 °C 1022.9 hPa Calm     85 % 0.0 mm
22:49 19.8 °C 16.2 °C 1022.9 hPa WSW 1.9 km/h 1.9 km/h 80 % 0.0 mm
22:54 19.8 °C 16.2 °C 1022.9 hPa West 2.6 km/h 2.6 km/h 80 % 0.0 mm
22:55 19.8 °C 16.2 °C 1022.9 hPa West 2.3 km/h 2.3 km/h 80 % 0.0 mm
23:00 19.8 °C 16.2 °C 1022.9 hPa WSW 3.7 km/h   80 % 0.0 mm
23:05 19.8 °C 16.2 °C 1022.9 hPa WSW 3.7 km/h 3.7 km/h 80 % 0.0 mm
23:10 19.7 °C 16.3 °C 1022.9 hPa Calm     81 % 0.0 mm
23:15 19.7 °C 16.3 °C 1022.9 hPa WSW 1.9 km/h 1.9 km/h 81 % 0.0 mm
23:20 19.6 °C 16.2 °C 1022.9 hPa SW 3.5 km/h   81 % 0.0 mm
23:25 19.6 °C 16.2 °C 1022.9 hPa WSW 2.6 km/h 2.6 km/h 81 % 0.0 mm
23:30 19.6 °C 16.2 °C 1022.9 hPa WSW 1.9 km/h   81 % 0.0 mm
23:35 19.5 °C 16.2 °C 1022.9 hPa West 3.2 km/h   81 % 0.0 mm
23:40 19.5 °C 16.2 °C 1022.9 hPa West 3.7 km/h 3.7 km/h 81 % 0.0 mm
23:45 19.5 °C 16.2 °C 1023.9 hPa WSW 1.9 km/h 2.3 km/h 81 % 0.0 mm
23:50 19.4 °C 16.1 °C 1023.9 hPa West 3.7 km/h 3.7 km/h 81 % 0.0 mm
23:55 19.3 °C 16.2 °C 1023.9 hPa SW 1.9 km/h 1.9 km/h 82 % 0.0 mm
Meteo Sesrovires
Elogis d' Weather Underground - 3.5 mb

Guio original per  Jim McMurry - jmcmurry@mwt.net Adaptat per a la plantilla per  Wim van der Kuil - Leuven-Template.eu

Trobareu la nostra informacio del temps tambe a:

Weather Underground

AWEKAS